Time;durP1;ratioP1;P1;durP2;ratioP2;P2;SDS_P1;SDS_P2;PMS_P1;PMS_P2;Temp;Humidity;BMP_temperature;BMP_pressure;BME280_temperature;BME280_humidity;BME280_pressure;Samples;Min_cycle;Max_cycle;Signal;HPM_P1;HPM_P2
2021/01/07 00:02:19;;;;;;;1999.90;999.90;;;;;;;3.53;76.76;100534.38;15844326;28;20048;-55
2021/01/07 00:09:52;;;;;;;1999.90;999.90;;;;;;;3.70;75.70;100532.03;15861537;28;20056;-57
2021/01/07 00:17:25;;;;;;;1999.90;999.90;;;;;;;3.31;77.49;100523.00;15861401;28;20043;-53
2021/01/07 00:24:58;;;;;;;;;;;;;;;3.33;76.54;100515.28;15843923;28;20054;-51
2021/01/07 00:32:31;;;;;;;1999.90;999.90;;;;;;;3.66;75.55;100525.44;15861523;28;20010;-53
2021/01/07 00:40:05;;;;;;;;;;;;;;;3.64;76.02;100513.03;15862176;28;20397;-51
2021/01/07 00:47:38;;;;;;;1999.90;999.90;;;;;;;3.33;76.41;100515.28;15853416;28;19923;-52
2021/01/07 00:55:11;;;;;;;;;;;;;;;3.62;75.42;100527.13;15840598;28;20028;-55
2021/01/07 01:02:47;;;;;;;1999.90;999.90;;;;;;;3.31;76.10;100520.25;15856068;28;19942;-56
2021/01/07 01:10:20;;;;;;;1999.90;999.90;;;;;;;3.40;76.32;100524.03;15858070;28;20131;-53
2021/01/07 01:17:53;;;;;;;1999.90;999.90;;;;;;;3.29;76.33;100534.34;15871119;28;20176;-51
2021/01/07 01:25:27;;;;;;;1999.90;999.90;;;;;;;3.26;76.77;100539.63;15853521;28;20357;-54
2021/01/07 01:33:01;;;;;;;1999.90;999.90;;;;;;;3.69;75.26;100532.31;15871416;28;20035;-52
2021/01/07 01:40:34;;;;;;;1999.90;999.90;;;;;;;3.01;76.26;100532.34;15838212;28;20093;-54
2021/01/07 01:48:11;;;;;;;1999.90;999.90;;;;;;;3.50;74.89;100534.16;15862503;28;20063;-51
2021/01/07 01:55:44;;;;;;;1999.90;999.90;;;;;;;3.29;75.17;100539.03;15833367;28;20055;-52
2021/01/07 02:03:18;;;;;;;;;;;;;;;3.11;76.02;100540.56;15869174;28;20043;-53
2021/01/07 02:11:00;;;;;;;1999.90;999.90;;;;;;;3.27;74.97;100536.56;15851416;28;19949;-54
2021/01/07 02:18:33;;;;;;;1999.90;999.90;;;;;;;3.29;74.79;100539.03;15826776;28;20055;-54
2021/01/07 02:26:07;;;;;;;;;;;;;;;3.46;73.90;100528.41;15867916;27;20048;-55
2021/01/07 02:33:40;;;;;;;1999.90;999.90;;;;;;;3.16;74.73;100529.50;15867539;28;19927;-51
2021/01/07 02:41:14;;;;;;;1999.90;999.90;;;;;;;3.18;74.64;100533.59;15833895;28;20078;-52
2021/01/07 02:48:46;;;;;;;;;;;;;;;3.44;73.69;100527.88;15872637;28;20051;-55
2021/01/07 02:56:20;;;;;;;1999.90;999.90;;;;;;;3.60;73.32;100526.59;15866059;28;19924;-58
2021/01/07 03:03:55;;;;;;;1999.90;999.90;;;;;;;3.46;72.84;100520.97;15846297;28;20055;-56
2021/01/07 03:11:29;;;;;;;1999.90;999.90;;;;;;;3.11;74.52;100524.81;15846000;28;20044;-55
2021/01/07 03:19:03;;;;;;;1999.90;999.90;;;;;;;3.05;74.48;100519.66;15862652;28;20071;-54
2021/01/07 03:26:36;;;;;;;1999.90;999.90;;;;;;;3.59;73.70;100522.19;15863527;28;20047;-55
2021/01/07 03:34:09;;;;;;;1999.90;999.90;;;;;;;3.30;74.39;100519.44;15863879;28;20062;-55
2021/01/07 03:41:43;;;;;;;1999.90;999.90;;;;;;;3.27;74.08;100511.75;15845296;28;20229;-53
2021/01/07 03:49:15;;;;;;;;;;;;;;;3.57;72.94;100521.69;15844675;28;20192;-55
2021/01/07 03:56:49;;;;;;;1999.90;999.90;;;;;;;3.64;72.45;100521.31;15863721;28;20025;-56
2021/01/07 04:04:22;;;;;;;1999.90;999.90;;;;;;;3.50;73.09;100518.44;15861832;28;20059;-56
2021/01/07 04:11:56;;;;;;;1999.90;999.90;;;;;;;3.43;73.30;100513.25;15861494;28;20078;-53
2021/01/07 04:19:28;;;;;;;;;;;;;;;3.55;73.33;100501.84;15848776;28;20142;-50
2021/01/07 04:27:03;;;;;;;1999.90;999.90;;;;;;;3.18;74.63;100488.66;15873831;28;19919;-53
2021/01/07 04:34:36;;;;;;;1999.90;999.90;;;;;;;3.16;74.21;100500.00;15874365;28;20039;-52
2021/01/07 04:42:10;;;;;;;1999.90;999.90;;;;;;;3.88;72.22;100494.56;15854306;28;20056;-54
2021/01/07 04:49:43;;;;;;;1999.90;999.90;;;;;;;3.65;72.70;100510.00;15856333;28;20438;-53
2021/01/07 04:57:17;;;;;;;1999.90;999.90;;;;;;;3.78;72.94;100500.22;15862967;28;20527;-53
2021/01/07 05:04:50;;;;;;;;;;;;;;;3.92;72.27;100506.66;15843084;28;20062;-51
2021/01/07 05:12:25;;;;;;;1999.90;999.90;;;;;;;3.46;73.40;100506.34;15871440;28;19987;-51
2021/01/07 05:19:57;;;;;;;1999.90;999.90;;;;;;;3.60;72.54;100512.00;15852803;28;20043;-54
2021/01/07 05:27:32;;;;;;;1999.90;999.90;;;;;;;3.52;73.57;100512.63;15870551;27;20382;-51
2021/01/07 05:35:07;;;;;;;1999.90;999.90;;;;;;;3.52;73.59;100516.19;15869625;28;20062;-53
2021/01/07 05:42:42;;;;;;;1999.90;999.90;;;;;;;3.56;73.05;100516.44;15869180;28;20075;-53
2021/01/07 05:50:15;;;;;;;1999.90;999.90;;;;;;;3.75;72.16;100520.94;15851083;28;20458;-52
2021/01/07 05:57:58;;;;;;;1999.90;999.90;;;;;;;3.76;72.90;100522.59;15868491;28;20093;-53
2021/01/07 06:05:32;;;;;;;1999.90;999.90;;;;;;;3.54;73.01;100515.91;15867470;28;20039;-57
2021/01/07 06:13:09;;;;;;;1999.90;999.90;;;;;;;3.74;72.69;100513.75;15868614;28;20127;-53
2021/01/07 06:20:42;;;;;;;1999.90;999.90;;;;;;;3.54;73.25;100508.44;15849140;28;20511;-55
2021/01/07 06:28:37;;;;;;;1999.90;999.90;;;;;;;3.76;72.50;100519.81;15832131;28;20176;-56
2021/01/07 06:36:14;;;;;;;1999.90;999.90;;;;;;;3.02;75.05;100515.56;15848172;28;20071;-53
2021/01/07 06:43:51;;;;;;;1999.90;999.90;;;;;;;3.34;74.64;100514.19;15864073;28;20043;-51
2021/01/07 06:51:27;;;;;;;1999.90;999.90;;;;;;;3.54;74.11;100525.00;15865768;28;20040;-54
2021/01/07 06:59:02;;;;;;;1999.90;999.90;;;;;;;3.54;73.91;100529.69;15866404;28;20050;-51
2021/01/07 07:06:48;;;;;;;1999.90;999.90;;;;;;;3.27;74.85;100533.81;15864863;28;20472;-51
2021/01/07 07:14:23;;;;;;;1999.90;999.90;;;;;;;3.46;73.71;100536.69;15864479;28;20047;-53
2021/01/07 07:21:57;;;;;;;1999.90;999.90;;;;;;;3.71;73.53;100535.59;15864153;28;20350;-53
2021/01/07 07:29:36;;;;;;;1999.90;999.90;;;;;;;3.41;74.59;100554.09;15862919;28;20039;-53
2021/01/07 07:37:18;;;;;;;1999.90;999.90;;;;;;;3.78;73.30;100557.34;15863331;28;20051;-53
2021/01/07 07:44:51;;;;;;;1999.90;999.90;;;;;;;3.66;73.15;100560.50;15848666;28;20070;-52
2021/01/07 07:52:25;;;;;;;1999.90;999.90;;;;;;;3.61;73.44;100566.88;15851872;28;20541;-52
2021/01/07 08:00:12;;;;;;;;;;;;;;;3.58;73.33;100574.91;15869157;28;20122;-53
2021/01/07 08:07:51;;;;;;;1999.90;999.90;;;;;;;3.54;73.95;100582.94;15864329;28;19943;-55
2021/01/07 08:15:28;;;;;;;1999.90;999.90;;;;;;;3.46;74.41;100594.63;15844123;28;20040;-55
2021/01/07 08:23:08;;;;;;;1999.90;999.90;;;;;;;3.90;73.09;100591.72;15862555;28;20044;-56
2021/01/07 08:30:48;;;;;;;1999.90;999.90;;;;;;;3.79;73.32;100587.41;15861556;28;20433;-50
2021/01/07 08:38:25;;;;;;;1999.90;999.90;;;;;;;3.33;74.62;100590.56;15861018;28;20044;-50
2021/01/07 08:45:59;;;;;;;1999.90;999.90;;;;;;;3.49;73.51;100596.78;15860905;28;20461;-51
2021/01/07 08:53:31;;;;;;;;;;;;;;;3.76;72.82;100580.53;15862645;28;20051;-56
2021/01/07 09:01:05;;;;;;;1999.90;999.90;;;;;;;3.99;72.19;100580.88;15861065;28;20410;-53
2021/01/07 09:08:38;;;;;;;1999.90;999.90;;;;;;;3.57;73.01;100578.78;15851958;28;20101;-56
2021/01/07 09:16:14;;;;;;;1999.90;999.90;;;;;;;3.78;72.55;100585.78;15871668;28;20039;-53
2021/01/07 09:23:50;;;;;;;1999.90;999.90;;;;;;;3.77;72.28;100581.38;15872041;28;20047;-58
2021/01/07 09:31:23;;;;;;;1999.90;999.90;;;;;;;3.81;72.38;100585.19;15871672;28;20044;-52
2021/01/07 09:38:57;;;;;;;1999.90;999.90;;;;;;;3.92;71.79;100578.44;15870777;28;20428;-53
2021/01/07 09:46:31;;;;;;;1999.90;999.90;;;;;;;3.67;72.66;100576.78;15870042;28;20070;-50
2021/01/07 09:54:03;;;;;;;;;;;;;;;3.90;71.94;100583.44;15851708;28;20092;-51
2021/01/07 10:01:38;;;;;;;1999.90;999.90;;;;;;;3.93;71.36;100588.38;15870315;28;19920;-57
2021/01/07 10:09:10;;;;;;;1999.90;999.90;;;;;;;3.68;72.88;100589.44;15833687;28;20568;-55
2021/01/07 10:16:51;;;;;;;1999.90;999.90;;;;;;;4.27;71.18;100580.00;15867503;28;20035;-55
2021/01/07 10:24:27;;;;;;;1999.90;999.90;;;;;;;4.31;70.54;100583.81;15851159;28;20101;-55
2021/01/07 10:32:08;;;;;;;1999.90;999.90;;;;;;;4.18;69.91;100580.94;15868648;28;20032;-53
2021/01/07 10:39:46;;;;;;;1999.90;999.90;;;;;;;4.17;70.57;100574.59;15848599;28;20067;-50
2021/01/07 10:47:26;;;;;;;1999.90;999.90;;;;;;;4.31;70.45;100580.22;15866273;28;20090;-54
2021/01/07 10:55:09;;;;;;;1999.90;999.90;;;;;;;4.52;69.72;100581.63;15866738;28;20123;-52
2021/01/07 11:03:13;;;;;;;1999.90;999.90;;;;;;;4.12;70.34;100571.88;15865606;28;20050;-54
2021/01/07 11:11:02;;;;;;;1999.90;999.90;;;;;;;4.42;69.30;100578.16;15850789;28;20104;-53
2021/01/07 11:18:43;;;;;;;1999.90;999.90;;;;;;;4.54;69.32;100575.78;15866694;28;20487;-54
2021/01/07 11:26:17;;;;;;;1999.90;999.90;;;;;;;3.92;70.14;100550.00;15863817;27;20069;-52
2021/01/07 11:33:52;;;;;;;1999.90;999.90;;;;;;;4.09;69.92;100552.31;15845999;28;20161;-55
2021/01/07 11:41:46;;;;;;;1999.90;999.90;;;;;;;4.39;69.36;100553.91;15846181;28;20092;-53
2021/01/07 11:49:23;;;;;;;1999.90;999.90;;;;;;;4.51;69.22;100540.47;15844960;28;20522;-53
2021/01/07 11:56:57;;;;;;;1999.90;999.90;;;;;;;3.93;70.49;100549.72;15862541;28;20097;-55
2021/01/07 12:04:30;;;;;;;;;;;;;;;4.64;68.63;100536.97;15863298;28;20047;-53
2021/01/07 12:12:05;;;;;;;1999.90;999.90;;;;;;;4.16;70.01;100538.97;15844262;28;19926;-54
2021/01/07 12:19:44;;;;;;;1999.90;999.90;;;;;;;4.09;69.89;100550.38;15844794;28;20091;-55
2021/01/07 12:27:17;;;;;;;1999.90;999.90;;;;;;;3.98;69.77;100551.63;15860761;28;20051;-52
2021/01/07 12:35:06;;;;;;;1999.90;999.90;;;;;;;4.43;69.07;100552.16;15842689;28;20044;-51
2021/01/07 12:42:42;;;;;;;1999.90;999.90;;;;;;;4.24;68.94;100541.91;15870355;28;20044;-56
2021/01/07 12:50:16;;;;;;;1999.90;999.90;;;;;;;4.04;69.57;100539.38;15874464;28;20040;-56
2021/01/07 12:57:58;;;;;;;1999.90;999.90;;;;;;;4.44;68.15;100535.28;15872056;28;20098;-53
2021/01/07 13:05:36;;;;;;;1999.90;999.90;;;;;;;4.79;67.77;100533.16;15853639;28;20040;-57
2021/01/07 13:13:10;;;;;;;1999.90;999.90;;;;;;;4.69;67.68;100542.44;15871333;28;20043;-50
2021/01/07 13:20:44;;;;;;;1999.90;999.90;;;;;;;4.54;67.95;100537.09;15871124;28;20117;-50
2021/01/07 13:28:17;;;;;;;1999.90;999.90;;;;;;;4.97;67.10;100535.09;15871444;28;20560;-51
2021/01/07 13:35:57;;;;;;;1999.90;999.90;;;;;;;4.98;66.81;100545.03;15871305;28;20040;-55
2021/01/07 13:43:33;;;;;;;1999.90;999.90;;;;;;;4.83;67.07;100548.84;15870117;28;20047;-54
2021/01/07 13:51:10;;;;;;;1999.90;999.90;;;;;;;4.70;67.31;100540.50;15869382;28;20229;-51
2021/01/07 13:58:43;;;;;;;1999.90;999.90;;;;;;;4.75;67.77;100546.75;15851604;28;20362;-55
2021/01/07 14:06:19;;;;;;;1999.90;999.90;;;;;;;4.43;68.84;100547.47;15869115;28;20493;-51
2021/01/07 14:13:52;;;;;;;1999.90;999.90;;;;;;;4.58;67.89;100555.53;15869105;28;20039;-56
2021/01/07 14:21:26;;;;;;;1999.90;999.90;;;;;;;4.61;68.65;100557.72;15869124;28;20040;-54
2021/01/07 14:29:05;;;;;;;1999.90;999.90;;;;;;;5.00;67.67;100567.66;15868398;28;20051;-57
2021/01/07 14:36:41;;;;;;;1999.90;999.90;;;;;;;4.70;68.07;100576.44;15868157;28;20159;-52
2021/01/07 14:44:14;;;;;;;1999.90;999.90;;;;;;;5.00;68.21;100575.13;15866539;28;20480;-51
2021/01/07 14:51:50;;;;;;;1999.90;999.90;;;;;;;4.85;68.22;100577.03;15866588;28;20043;-51
2021/01/07 14:59:31;;;;;;;1999.90;999.90;;;;;;;4.97;67.98;100571.03;15864536;28;20138;-51
2021/01/07 15:07:10;;;;;;;1999.90;999.90;;;;;;;4.93;67.70;100575.53;15845806;28;20119;-53
2021/01/07 15:14:51;;;;;;;1999.90;999.90;;;;;;;4.96;67.63;100576.88;15847052;28;20307;-52
2021/01/07 15:22:35;;;;;;;1999.90;999.90;;;;;;;4.51;68.74;100571.69;15865272;28;20050;-51
2021/01/07 15:30:11;;;;;;;1999.90;999.90;;;;;;;4.61;68.75;100576.25;15845996;28;20457;-52
2021/01/07 15:38:21;;;;;;;1999.90;999.90;;;;;;;4.85;67.73;100578.97;15846295;28;20044;-51
2021/01/07 15:46:03;;;;;;;1999.90;999.90;;;;;;;4.82;67.47;100579.56;15861215;28;20056;-51
2021/01/07 15:54:21;;;;;;;1999.90;999.90;;;;;;;4.88;67.53;100589.41;15845171;28;20039;-52
2021/01/07 16:01:56;;;;;;;1999.90;999.90;;;;;;;4.86;68.02;100583.38;15853117;28;20354;-54
2021/01/07 16:09:30;;;;;;;1999.90;999.90;;;;;;;4.80;67.37;100590.94;15858618;28;20059;-53
2021/01/07 16:17:04;;;;;;;1999.90;999.90;;;;;;;4.97;66.92;100595.94;15841792;28;20048;-54
2021/01/07 16:24:50;;;;;;;1999.90;999.90;;;;;;;4.83;67.65;100597.78;15859366;28;20078;-53
2021/01/07 16:32:23;;;;;;;1999.90;999.90;;;;;;;4.59;68.20;100590.38;15838803;28;20096;-56
2021/01/07 16:39:58;;;;;;;1999.90;999.90;;;;;;;4.79;67.64;100602.25;15858811;28;20054;-56
2021/01/07 16:47:31;;;;;;;1999.90;999.90;;;;;;;4.63;67.64;100587.84;15860294;28;20043;-56
2021/01/07 16:55:07;;;;;;;1999.90;999.90;;;;;;;4.79;67.20;100596.72;15859675;28;20202;-56
2021/01/07 17:02:40;;;;;;;1999.90;999.90;;;;;;;4.88;67.10;100600.47;15860023;28;20120;-55
2021/01/07 17:10:14;;;;;;;1999.90;999.90;;;;;;;4.99;66.82;100596.44;15859747;28;20063;-61
2021/01/07 17:17:47;;;;;;;1999.90;999.90;;;;;;;4.69;67.59;100610.69;15841005;28;20044;-58
2021/01/07 17:25:21;;;;;;;1999.90;999.90;;;;;;;4.81;67.32;100606.38;15861845;28;20104;-52
2021/01/07 17:32:55;;;;;;;1999.90;999.90;;;;;;;4.76;66.65;100605.63;15879266;27;20050;-57
2021/01/07 17:40:28;;;;;;;1999.90;999.90;;;;;;;4.65;67.29;100602.16;15870947;28;20176;-57
2021/01/07 17:48:01;;;;;;;;;;;;;;;4.72;67.71;100604.59;15870317;28;20055;-54
2021/01/07 17:55:34;;;;;;;1999.90;999.90;;;;;;;4.70;67.34;100602.13;15847213;28;19920;-56
2021/01/07 18:03:10;;;;;;;1999.90;999.90;;;;;;;4.68;67.41;100600.75;15853331;28;20048;-54
2021/01/07 18:10:46;;;;;;;1999.90;999.90;;;;;;;4.74;67.24;100600.41;15869188;28;20039;-52
2021/01/07 18:18:19;;;;;;;1999.90;999.90;;;;;;;4.58;67.42;100593.41;15868239;28;20060;-53
2021/01/07 18:25:53;;;;;;;1999.90;999.90;;;;;;;4.66;67.62;100600.22;15867673;27;20036;-52
2021/01/07 18:33:25;;;;;;;1999.90;999.90;;;;;;;4.46;67.75;100593.84;15919656;27;20104;-57
2021/01/07 18:40:59;;;;;;;1999.90;999.90;;;;;;;4.55;67.30;100599.53;15863029;28;20505;-54
2021/01/07 18:48:32;;;;;;;1999.90;999.90;;;;;;;4.59;67.46;100601.44;15866382;28;20167;-56
2021/01/07 18:56:08;;;;;;;1999.90;999.90;;;;;;;4.52;67.60;100602.91;15865827;28;20234;-51
2021/01/07 19:03:41;;;;;;;1999.90;999.90;;;;;;;4.47;67.86;100600.19;15847438;28;20134;-61
2021/01/07 19:11:15;;;;;;;1999.90;999.90;;;;;;;4.73;67.51;100607.03;15864517;28;20036;-53
2021/01/07 19:18:48;;;;;;;1999.90;999.90;;;;;;;4.59;67.48;100595.09;15860070;28;20066;-56
2021/01/07 19:26:21;;;;;;;1999.90;999.90;;;;;;;4.70;67.65;100595.78;15864351;28;20411;-55
2021/01/07 19:33:54;;;;;;;1999.90;999.90;;;;;;;4.41;67.32;100601.38;15846219;28;20545;-53
2021/01/07 19:41:28;;;;;;;1999.90;999.90;;;;;;;4.51;67.95;100598.50;15860859;28;20088;-53
2021/01/07 19:49:01;;;;;;;1999.90;999.90;;;;;;;4.59;67.35;100606.13;15842650;28;20472;-58
2021/01/07 19:56:34;;;;;;;1999.90;999.90;;;;;;;4.67;67.11;100594.41;15827153;28;20062;-59
2021/01/07 20:04:07;;;;;;;1999.90;999.90;;;;;;;4.64;67.34;100601.34;15862862;28;20072;-60
2021/01/07 20:11:41;;;;;;;1999.90;999.90;;;;;;;4.56;67.74;100602.00;15844476;28;20180;-58
2021/01/07 20:19:14;;;;;;;1999.90;999.90;;;;;;;4.55;67.83;100600.34;15862058;28;20051;-57
2021/01/07 20:26:48;;;;;;;1999.90;999.90;;;;;;;4.66;67.12;100611.28;15844282;28;20040;-59
2021/01/07 20:34:21;;;;;;;1999.90;999.90;;;;;;;4.56;67.53;100613.06;15861781;28;20047;-56
2021/01/07 20:41:54;;;;;;;1999.90;999.90;;;;;;;4.55;67.82;100611.41;15842883;28;20496;-57
2021/01/07 20:49:27;;;;;;;1999.90;999.90;;;;;;;4.48;68.21;100612.88;15842509;28;20039;-58
2021/01/07 20:57:02;;;;;;;1999.90;999.90;;;;;;;4.59;67.87;100609.72;15841288;28;20066;-56
2021/01/07 21:04:35;;;;;;;1999.90;999.90;;;;;;;4.61;67.00;100610.25;15851936;28;20451;-53
2021/01/07 21:12:10;;;;;;;1999.90;999.90;;;;;;;4.72;66.78;100599.88;15872309;28;20069;-55
2021/01/07 21:19:42;;;;;;;1999.90;999.90;;;;;;;4.71;66.70;100602.94;15872474;28;20094;-55
2021/01/07 21:27:16;;;;;;;1999.90;999.90;;;;;;;4.72;67.52;100604.59;15853277;27;20134;-61
2021/01/07 21:34:49;;;;;;;1999.90;999.90;;;;;;;4.55;67.17;100607.81;15852967;28;20091;-58
2021/01/07 21:42:24;;;;;;;1999.90;999.90;;;;;;;4.57;67.56;100611.94;15870911;28;20083;-57
2021/01/07 21:49:56;;;;;;;1999.90;999.90;;;;;;;4.60;67.30;100614.13;15870224;28;20044;-57
2021/01/07 21:57:30;;;;;;;1999.90;999.90;;;;;;;4.72;66.76;100610.94;15851818;28;20035;-53
2021/01/07 22:05:03;;;;;;;1999.90;999.90;;;;;;;4.61;67.38;100613.00;15851241;28;20046;-62
2021/01/07 22:12:37;;;;;;;1999.90;999.90;;;;;;;4.56;67.29;100598.41;15850028;28;20485;-56
2021/01/07 22:20:10;;;;;;;;;;;;;;;4.68;67.41;100607.09;15850205;28;20091;-55
2021/01/07 22:27:44;;;;;;;1999.90;999.90;;;;;;;4.52;67.59;100602.91;15867643;27;20014;-55
2021/01/07 22:35:17;;;;;;;1999.90;999.90;;;;;;;4.49;67.69;100600.75;15850010;28;20126;-53
2021/01/07 22:42:50;;;;;;;1999.90;999.90;;;;;;;4.42;67.63;100595.56;15849006;28;20039;-52
2021/01/07 22:50:23;;;;;;;1999.90;999.90;;;;;;;4.18;68.81;100603.03;15847580;28;20039;-57
2021/01/07 22:57:57;;;;;;;1999.90;999.90;;;;;;;4.48;68.01;100594.38;15865797;28;20044;-54
2021/01/07 23:05:30;;;;;;;1999.90;999.90;;;;;;;4.40;68.37;100591.44;15865198;28;20044;-58
2021/01/07 23:13:03;;;;;;;1999.90;999.90;;;;;;;4.46;68.11;100598.53;15864897;28;20058;-57
2021/01/07 23:20:36;;;;;;;;;;;;;;;4.46;67.77;100593.84;15865780;28;20040;-56
2021/01/07 23:28:09;;;;;;;1999.90;999.90;;;;;;;4.37;68.48;100600.31;15845204;28;20002;-55
2021/01/07 23:35:42;;;;;;;1999.90;999.90;;;;;;;4.29;68.69;100599.84;15864101;28;20124;-57
2021/01/07 23:43:16;;;;;;;1999.90;999.90;;;;;;;4.38;68.92;100583.47;15864008;28;20553;-58
2021/01/07 23:50:48;;;;;;;;;;;;;;;4.41;68.50;100587.56;15863378;28;20050;-54
2021/01/07 23:58:22;;;;;;;1999.90;999.90;;;;;;;4.33;68.90;100592.63;15862761;28;19920;-57
